Time;durP1;ratioP1;P1;durP2;ratioP2;P2;SDS_P1;SDS_P2;PMS_P1;PMS_P2;Temp;Humidity;BMP_temperature;BMP_pressure;BME280_temperature;BME280_humidity;BME280_pressure;Samples;Min_cycle;Max_cycle;Signal;HPM_P1;HPM_P2
2023/03/30 00:01:22;;;;;;;1.70;0.82;;;;;;;16.87;55.82;96388.78;10371445;28;20042;-33
2023/03/30 00:06:23;;;;;;;1.53;0.87;;;;;;;16.87;53.57;96380.34;10363427;28;20516;-33
2023/03/30 00:11:24;;;;;;;1.02;0.75;;;;;;;16.85;52.95;96372.78;10366132;28;20027;-33
2023/03/30 00:16:26;;;;;;;1.98;0.85;;;;;;;16.86;52.26;96356.75;10371786;28;20461;-33
2023/03/30 00:21:26;;;;;;;1.63;0.77;;;;;;;16.89;52.37;96355.91;10360938;28;20038;-32
2023/03/30 00:26:27;;;;;;;1.33;0.70;;;;;;;16.88;52.56;96365.19;10363392;28;20034;-33
2023/03/30 00:31:27;;;;;;;2.28;1.00;;;;;;;16.87;52.61;96353.38;10363158;28;20553;-32
2023/03/30 00:36:29;;;;;;;3.90;1.67;;;;;;;16.87;52.55;96344.94;10345955;28;20402;-33
2023/03/30 00:41:30;;;;;;;1.52;0.82;;;;;;;16.87;52.08;96347.47;10359612;28;20121;-32
2023/03/30 00:46:31;;;;;;;1.95;1.40;;;;;;;16.86;52.66;96341.59;10348497;28;20037;-33
2023/03/30 00:51:36;;;;;;;1.05;0.70;;;;;;;16.87;52.24;96339.88;10367606;28;20026;-33
2023/03/30 00:56:37;;;;;;;2.75;0.73;;;;;;;16.86;52.76;96353.38;10358226;28;20037;-33
2023/03/30 01:01:39;;;;;;;2.42;0.93;;;;;;;16.93;57.52;96350.00;10352195;28;20046;-33
2023/03/30 01:06:42;;;;;;;1.23;0.90;;;;;;;16.95;58.12;96391.31;10347008;28;20032;-33
2023/03/30 01:11:42;;;;;;;2.72;1.30;;;;;;;16.95;57.09;96416.59;10377010;28;20065;-34
2023/03/30 01:16:50;;;;;;;1.20;0.70;;;;;;;16.84;56.28;96418.25;10347651;28;20036;-33
2023/03/30 01:22:15;;;;;;;2.35;1.00;;;;;;;16.85;55.03;96435.13;10372712;28;20087;-33
2023/03/30 01:27:45;;;;;;;1.50;0.75;;;;;;;16.83;54.06;96366.03;10383096;28;20030;-33
2023/03/30 01:32:54;;;;;;;1.40;0.93;;;;;;;16.83;54.55;96381.19;10359456;28;20061;-33
2023/03/30 01:37:57;;;;;;;1.13;0.73;;;;;;;16.82;55.01;96427.53;10361877;28;20036;-33
2023/03/30 01:43:15;;;;;;;1.15;0.75;;;;;;;16.81;54.96;96438.50;10359105;28;20493;-32
2023/03/30 01:48:38;;;;;;;3.30;0.90;;;;;;;16.80;53.35;96426.66;10355396;28;20042;-32
2023/03/30 01:53:46;;;;;;;1.35;0.65;;;;;;;16.78;54.45;96424.16;10334058;28;20033;-33
2023/03/30 01:59:18;;;;;;;1.30;0.90;;;;;;;16.79;54.79;96414.88;10357636;28;20088;-33
2023/03/30 02:04:22;;;;;;;1.88;0.93;;;;;;;16.79;54.17;96400.56;10349910;28;20087;-33
2023/03/30 02:09:25;;;;;;;1.35;0.85;;;;;;;16.78;53.34;96373.59;10352914;28;20030;-33
2023/03/30 02:14:30;;;;;;;0.70;0.70;;;;;;;16.87;57.49;96357.59;10373158;28;20032;-33
2023/03/30 02:19:30;;;;;;;2.05;0.90;;;;;;;16.91;58.03;96344.94;10364457;28;20553;-33
2023/03/30 02:24:32;;;;;;;1.83;0.70;;;;;;;16.89;56.78;96335.69;10363139;28;20092;-33
2023/03/30 02:29:38;;;;;;;1.00;0.55;;;;;;;16.82;55.71;96324.72;10355967;28;20025;-33
2023/03/30 02:34:38;;;;;;;1.67;1.00;;;;;;;16.76;55.53;96301.13;10350943;28;20042;-33
2023/03/30 02:39:46;;;;;;;1.43;0.60;;;;;;;16.72;55.49;96271.66;10343507;28;20038;-33
2023/03/30 02:45:14;;;;;;;1.60;1.05;;;;;;;16.75;55.16;96249.72;10365386;28;20121;-33
2023/03/30 02:50:39;;;;;;;1.33;0.77;;;;;;;16.75;54.85;96237.09;10352725;28;20033;-33
2023/03/30 02:56:24;;;;;;;0.98;0.60;;;;;;;16.77;54.31;96233.75;10338392;28;20405;-34
2023/03/30 03:01:44;;;;;;;2.28;0.70;;;;;;;16.79;52.92;96237.91;10337044;28;20034;-33
2023/03/30 03:06:51;;;;;;;1.10;0.75;;;;;;;16.80;52.00;96214.31;10345623;28;20520;-33
2023/03/30 03:11:52;;;;;;;1.80;0.77;;;;;;;16.81;51.98;96216.03;10363789;28;20526;-33
2023/03/30 03:16:53;;;;;;;2.15;1.05;;;;;;;16.81;51.90;96211.81;10361883;28;20029;-34
2023/03/30 03:21:57;;;;;;;0.70;0.65;;;;;;;16.81;52.13;96199.16;10383246;28;20495;-33
2023/03/30 03:26:58;;;;;;;1.20;0.98;;;;;;;16.88;56.24;96192.41;10347001;28;20126;-32
2023/03/30 03:32:01;;;;;;;0.70;0.55;;;;;;;16.90;57.47;96185.69;10352355;28;20030;-32
2023/03/30 03:37:06;;;;;;;1.58;0.82;;;;;;;16.89;56.01;96163.78;10353132;28;20404;-33
2023/03/30 03:42:07;;;;;;;0.98;0.60;;;;;;;16.86;54.37;96187.38;10351908;28;20026;-32
2023/03/30 03:47:13;;;;;;;1.13;0.50;;;;;;;16.88;52.68;96182.28;10346532;28;20445;-33
2023/03/30 03:52:14;;;;;;;1.15;0.75;;;;;;;16.88;52.42;96189.88;10351588;28;20149;-33
2023/03/30 03:57:14;;;;;;;1.85;0.77;;;;;;;16.88;52.31;96169.66;10336332;28;20145;-33
2023/03/30 04:02:15;;;;;;;0.52;0.43;;;;;;;16.87;52.12;96168.81;10359755;28;20044;-33
2023/03/30 04:07:15;;;;;;;2.47;1.23;;;;;;;16.87;52.22;96155.31;10376924;28;20084;-33
2023/03/30 04:12:15;;;;;;;0.73;0.63;;;;;;;16.87;51.75;96155.31;10344020;28;20120;-33
2023/03/30 04:17:37;;;;;;;1.08;0.60;;;;;;;16.88;52.04;96145.22;10359409;28;20042;-33
2023/03/30 04:23:00;;;;;;;1.75;0.50;;;;;;;16.90;51.86;96135.13;10342054;28;20030;-34
2023/03/30 04:28:34;;;;;;;1.15;0.65;;;;;;;16.91;51.92;96121.63;10337704;28;20088;-33
2023/03/30 04:34:03;;;;;;;3.10;0.95;;;;;;;16.91;52.76;96124.16;10356381;28;20038;-33
2023/03/30 04:39:17;;;;;;;4.80;1.00;;;;;;;16.94;56.73;96117.41;10333165;28;20030;-33
2023/03/30 04:44:31;;;;;;;3.17;0.87;;;;;;;16.99;57.73;96124.97;10349063;28;20494;-32
2023/03/30 04:49:52;;;;;;;2.55;1.25;;;;;;;16.97;58.36;96131.69;10384463;28;20076;-32
2023/03/30 04:55:12;;;;;;;1.15;0.65;;;;;;;16.92;55.11;96154.47;10380910;28;20493;-33
2023/03/30 05:00:36;;;;;;;3.95;1.08;;;;;;;16.95;53.90;96162.06;10366817;28;20077;-33
2023/03/30 05:05:57;;;;;;;3.40;1.00;;;;;;;16.95;53.22;96133.41;10373810;28;20509;-32
2023/03/30 05:11:17;;;;;;;3.20;0.80;;;;;;;16.94;53.88;96154.47;10355311;28;20033;-32
2023/03/30 05:16:22;;;;;;;2.80;0.77;;;;;;;16.94;56.50;96167.97;10349375;28;20029;-34
2023/03/30 05:21:46;;;;;;;2.05;1.00;;;;;;;16.94;53.28;96157.00;10319471;28;20045;-33
2023/03/30 05:27:01;;;;;;;6.13;1.20;;;;;;;16.92;53.44;96156.16;10343779;28;20444;-33
2023/03/30 05:32:36;;;;;;;11.63;2.22;;;;;;;16.82;56.16;96189.91;10328399;28;20026;-33
2023/03/30 05:37:43;;;;;;;6.32;0.90;;;;;;;16.89;53.62;96199.16;10336737;28;20030;-33
2023/03/30 05:43:14;;;;;;;3.28;0.80;;;;;;;16.88;53.56;96205.91;10361162;28;20410;-34
2023/03/30 05:48:23;;;;;;;6.00;1.52;;;;;;;16.89;53.02;96194.94;10364507;28;20046;-33
2023/03/30 05:53:53;;;;;;;9.85;1.88;;;;;;;16.91;58.42;96190.72;10334407;28;20118;-33
2023/03/30 05:59:12;;;;;;;13.13;2.00;;;;;;;16.95;58.60;96211.78;10372936;28;20525;-33
2023/03/30 06:04:35;;;;;;;10.70;2.03;;;;;;;16.93;56.43;96221.06;10349587;28;20044;-33
2023/03/30 06:09:37;;;;;;;9.52;1.92;;;;;;;16.88;55.46;96242.97;10360700;28;20121;-33
2023/03/30 06:14:45;;;;;;;4.70;1.40;;;;;;;16.87;53.56;96246.34;10335095;28;20552;-33
2023/03/30 06:20:00;;;;;;;2.78;1.08;;;;;;;16.87;53.08;96269.94;10355225;28;20502;-33
2023/03/30 06:25:00;;;;;;;4.07;0.90;;;;;;;16.87;53.47;96276.69;10341107;28;20126;-32
2023/03/30 06:30:01;;;;;;;5.30;1.93;;;;;;;16.83;53.67;96280.06;10374868;28;20175;-33
2023/03/30 06:35:03;;;;;;;3.83;1.15;;;;;;;16.84;53.35;96296.91;10346367;28;20273;-33
2023/03/30 06:40:12;;;;;;;6.68;1.10;;;;;;;16.83;53.06;96305.34;10357307;28;20029;-33
2023/03/30 06:45:13;;;;;;;4.30;1.25;;;;;;;16.83;53.44;96295.25;10365504;28;20029;-33
2023/03/30 06:50:14;;;;;;;8.80;2.50;;;;;;;16.81;53.81;96286.81;10352596;28;20498;-33
2023/03/30 06:55:27;;;;;;;2.25;1.00;;;;;;;16.81;53.58;96279.22;10344747;28;20048;-33
2023/03/30 07:00:27;;;;;;;2.50;1.10;;;;;;;16.78;53.78;96272.50;10340873;28;20041;-33
2023/03/30 07:05:47;;;;;;;4.43;1.13;;;;;;;16.87;57.51;96253.94;10349271;28;20426;-33
2023/03/30 07:11:08;;;;;;;2.72;1.10;;;;;;;16.90;58.12;96251.41;10373936;28;20033;-33
2023/03/30 07:16:13;;;;;;;5.32;1.13;;;;;;;16.91;57.27;96248.88;10366441;28;20041;-34
2023/03/30 07:21:14;;;;;;;5.20;1.58;;;;;;;16.81;56.03;96259.84;10354889;28;20026;-32
2023/03/30 07:26:16;;;;;;;2.40;0.70;;;;;;;16.79;54.94;96275.84;10359477;28;20034;-33
2023/03/30 07:31:36;;;;;;;2.13;0.93;;;;;;;16.77;54.67;96270.81;10372778;28;20037;-33
2023/03/30 07:36:41;;;;;;;4.00;1.13;;;;;;;16.77;54.71;96289.34;10343938;28;20068;-33
2023/03/30 07:41:41;;;;;;;1.95;1.15;;;;;;;16.73;54.52;96305.34;10345414;28;20505;-33
2023/03/30 07:46:42;;;;;;;3.43;1.30;;;;;;;16.77;55.26;96334.84;10371008;28;20030;-33
2023/03/30 07:51:48;;;;;;;1.63;0.90;;;;;;;16.76;54.28;96339.06;10348070;28;20342;-33
2023/03/30 07:57:02;;;;;;;1.98;0.80;;;;;;;16.76;54.47;96359.28;10351901;28;20457;-33
2023/03/30 08:02:05;;;;;;;1.95;0.70;;;;;;;16.75;54.10;96319.66;10361220;28;20038;-33
2023/03/30 08:07:18;;;;;;;3.65;0.90;;;;;;;16.77;54.12;96356.75;10354204;28;20132;-32
2023/03/30 08:12:21;;;;;;;1.83;0.88;;;;;;;16.72;53.53;96321.34;10372524;28;20033;-33
2023/03/30 08:17:22;;;;;;;2.85;0.95;;;;;;;16.78;55.82;96390.44;10353296;28;20060;-34
2023/03/30 08:22:23;;;;;;;2.15;0.90;;;;;;;16.87;57.56;96344.94;10374355;28;20029;-33
2023/03/30 08:27:23;;;;;;;1.73;0.85;;;;;;;16.89;57.25;96371.91;10378757;28;20056;-32
2023/03/30 08:32:23;;;;;;;1.93;0.90;;;;;;;16.86;56.25;96371.06;10373879;28;20030;-33
2023/03/30 08:37:24;;;;;;;1.57;0.80;;;;;;;16.80;55.47;96411.50;10359127;28;20025;-33
2023/03/30 08:42:31;;;;;;;2.10;0.70;;;;;;;16.81;53.63;96441.03;10363107;28;20340;-33
2023/03/30 08:47:35;;;;;;;2.70;1.00;;;;;;;16.79;53.73;96460.38;10385222;28;20409;-32
2023/03/30 08:52:36;;;;;;;3.13;0.88;;;;;;;16.81;53.14;96468.84;10355877;28;20038;-33
2023/03/30 08:57:48;;;;;;;2.80;0.90;;;;;;;16.76;52.78;96427.53;10359585;28;20419;-32
2023/03/30 09:02:54;;;;;;;1.27;0.88;;;;;;;16.78;52.94;96433.41;10360333;28;20057;-33
2023/03/30 09:08:07;;;;;;;2.70;0.60;;;;;;;16.79;52.45;96425.00;10366588;28;20034;-32
2023/03/30 09:13:13;;;;;;;1.08;0.80;;;;;;;16.79;52.68;96441.00;10345298;28;20053;-33
2023/03/30 09:18:24;;;;;;;1.83;1.13;;;;;;;16.79;52.56;96455.31;10368721;28;20036;-33
2023/03/30 09:23:28;;;;;;;1.67;0.68;;;;;;;16.77;52.96;96467.97;10371260;28;20032;-33
2023/03/30 09:28:47;;;;;;;1.98;1.60;;;;;;;16.79;52.06;96480.59;10359878;28;20118;-33
2023/03/30 09:34:02;;;;;;;2.17;0.70;;;;;;;16.87;56.75;96489.06;10363199;28;20441;-34
2023/03/30 09:39:16;;;;;;;2.47;1.23;;;;;;;16.89;57.24;96489.94;10346833;28;20030;-33
2023/03/30 09:44:48;;;;;;;1.35;0.95;;;;;;;16.90;56.53;96486.56;10367083;28;20036;-33
2023/03/30 09:49:58;;;;;;;1.33;0.50;;;;;;;16.86;54.38;96487.38;10347805;28;20049;-33
2023/03/30 09:55:21;;;;;;;1.10;0.60;;;;;;;16.87;53.39;96484.00;10368633;28;20026;-33
2023/03/30 10:00:31;;;;;;;2.47;0.75;;;;;;;16.86;52.97;96482.31;10385119;28;20034;-34
2023/03/30 10:05:34;;;;;;;1.25;0.63;;;;;;;16.81;53.02;96463.78;10361487;28;20124;-33
2023/03/30 10:10:38;;;;;;;1.33;0.88;;;;;;;16.86;52.87;96487.38;10368999;28;20457;-33
2023/03/30 10:15:45;;;;;;;1.38;0.85;;;;;;;16.87;52.69;96489.06;10364288;28;20031;-33
2023/03/30 10:20:50;;;;;;;1.35;0.68;;;;;;;16.87;53.89;96468.81;10383974;28;20041;-33
2023/03/30 10:26:00;;;;;;;1.60;0.80;;;;;;;16.88;53.52;96471.38;10344965;28;20070;-33
2023/03/30 10:31:05;;;;;;;1.65;0.80;;;;;;;16.88;55.33;96481.47;10366858;28;20069;-33
2023/03/30 10:36:06;;;;;;;1.65;0.80;;;;;;;16.87;56.61;96494.97;10384483;28;20108;-33
2023/03/30 10:41:19;;;;;;;4.15;1.33;;;;;;;16.84;55.72;96511.81;10363719;28;20042;-33
2023/03/30 10:46:23;;;;;;;7.82;1.23;;;;;;;16.85;56.18;96505.91;10355653;28;20041;-33
2023/03/30 10:51:26;;;;;;;7.18;2.05;;;;;;;16.98;56.74;96512.72;10368857;28;20489;-34
2023/03/30 10:56:38;;;;;;;10.18;1.63;;;;;;;16.99;57.44;96515.22;10359554;28;20041;-33
2023/03/30 11:01:59;;;;;;;8.02;2.08;;;;;;;16.97;57.10;96521.09;10371063;28;20644;-33
2023/03/30 11:07:00;;;;;;;6.35;1.48;;;;;;;16.95;56.54;96543.88;10370912;28;20470;-34
2023/03/30 11:12:06;;;;;;;2.50;0.90;;;;;;;16.96;57.08;96564.94;10368377;28;20030;-33
2023/03/30 11:17:15;;;;;;;8.97;1.23;;;;;;;16.94;57.82;96547.25;10355902;28;20485;-33
2023/03/30 11:22:35;;;;;;;2.83;1.10;;;;;;;16.95;54.70;96551.47;10371089;28;20030;-33
2023/03/30 11:27:47;;;;;;;3.67;0.98;;;;;;;16.96;54.51;96560.75;10353025;28;20514;-33
2023/03/30 11:32:56;;;;;;;4.32;1.45;;;;;;;16.95;53.52;96568.31;10368673;28;20497;-33
2023/03/30 11:38:00;;;;;;;8.25;1.23;;;;;;;16.88;55.34;96559.00;10352945;28;20465;-32
2023/03/30 11:43:00;;;;;;;11.13;1.17;;;;;;;16.93;55.02;96547.25;10363754;28;20494;-33
2023/03/30 11:48:19;;;;;;;2.78;0.80;;;;;;;16.93;55.01;96559.88;10359525;28;20041;-33
2023/03/30 11:53:40;;;;;;;3.47;0.98;;;;;;;16.93;54.43;96559.88;10358162;28;20033;-33
2023/03/30 11:58:46;;;;;;;1.35;0.93;;;;;;;16.93;56.86;96544.72;10354099;28;20088;-33
2023/03/30 12:03:51;;;;;;;15.95;2.05;;;;;;;16.94;58.68;96549.78;10369202;28;20678;-32
2023/03/30 12:09:13;;;;;;;6.45;1.33;;;;;;;16.97;58.85;96541.34;10374590;28;20564;-34
2023/03/30 12:14:51;;;;;;;2.25;0.93;;;;;;;16.93;56.88;96525.34;10371304;28;20038;-33
2023/03/30 12:19:59;;;;;;;4.43;1.52;;;;;;;16.92;54.56;96515.22;10371775;28;20045;-33
2023/03/30 12:25:15;;;;;;;6.70;0.98;;;;;;;16.91;54.21;96493.28;10353204;28;20040;-33
2023/03/30 12:30:26;;;;;;;2.63;1.10;;;;;;;16.91;53.60;96508.47;10375449;28;20498;-33
2023/03/30 12:35:51;;;;;;;2.30;0.88;;;;;;;16.91;53.47;96521.09;10366318;28;20183;-33
2023/03/30 12:41:00;;;;;;;3.92;0.73;;;;;;;16.90;53.27;96524.47;10352577;28;20038;-33
2023/03/30 12:46:36;;;;;;;1.95;1.08;;;;;;;16.88;53.19;96491.59;10369330;28;20108;-33
2023/03/30 12:52:03;;;;;;;1.60;0.80;;;;;;;16.88;53.35;96490.75;10358444;28;20041;-33
2023/03/30 12:57:30;;;;;;;1.50;0.77;;;;;;;16.87;53.57;96481.47;10361448;28;20053;-33
2023/03/30 13:02:49;;;;;;;1.95;0.95;;;;;;;16.89;52.92;96487.41;10368251;28;20077;-32
2023/03/30 13:07:52;;;;;;;2.47;0.95;;;;;;;16.89;54.17;96478.13;10356578;28;20045;-33
2023/03/30 13:12:56;;;;;;;2.15;0.88;;;;;;;16.92;57.02;96452.00;10382828;28;20113;-33
2023/03/30 13:18:00;;;;;;;3.22;0.90;;;;;;;16.95;57.97;96467.16;10356024;28;20056;-32
2023/03/30 13:23:04;;;;;;;4.50;1.40;;;;;;;16.96;57.82;96443.56;10356173;28;20124;-34
2023/03/30 13:28:36;;;;;;;2.10;1.00;;;;;;;16.91;56.84;96450.31;10360936;28;20042;-33
2023/03/30 13:33:41;;;;;;;1.77;0.82;;;;;;;16.91;54.44;96457.91;10362236;28;20034;-33
2023/03/30 13:39:02;;;;;;;2.60;1.15;;;;;;;16.90;54.02;96472.22;10367117;28;20037;-33
2023/03/30 13:44:21;;;;;;;2.08;0.70;;;;;;;16.89;53.59;96457.88;10378107;28;20092;-32
2023/03/30 13:49:36;;;;;;;1.55;1.02;;;;;;;16.90;53.71;96446.91;10378987;28;20026;-33
2023/03/30 13:54:39;;;;;;;3.10;1.00;;;;;;;16.91;52.93;96430.09;10378105;28;20033;-33
2023/03/30 13:59:45;;;;;;;6.75;0.95;;;;;;;16.89;52.83;96421.66;10362820;28;20076;-33
2023/03/30 14:04:47;;;;;;;6.13;1.20;;;;;;;16.92;55.42;96396.38;10370889;28;20099;-33
2023/03/30 14:10:12;;;;;;;6.53;1.23;;;;;;;16.89;52.72;96376.16;10359280;28;20069;-34
2023/03/30 14:15:24;;;;;;;9.25;1.63;;;;;;;16.91;53.08;96366.88;10371144;28;20085;-33
2023/03/30 14:20:39;;;;;;;6.50;1.02;;;;;;;16.89;52.78;96371.09;10359907;28;20034;-33
2023/03/30 14:25:40;;;;;;;17.40;2.67;;;;;;;16.94;56.71;96365.19;10379291;28;20625;-33
2023/03/30 14:30:52;;;;;;;13.30;3.00;;;;;;;17.04;60.15;96355.91;10360460;28;20092;-34
2023/03/30 14:35:55;;;;;;;14.07;2.20;;;;;;;17.10;58.25;96376.13;10353296;28;20037;-33
2023/03/30 14:40:57;;;;;;;16.92;1.63;;;;;;;17.01;56.16;96409.00;10371871;28;20060;-34
2023/03/30 14:46:01;;;;;;;11.75;1.73;;;;;;;16.96;53.99;96413.22;10379103;28;20033;-33
2023/03/30 14:51:08;;;;;;;6.65;0.90;;;;;;;16.93;53.55;96444.44;10351041;28;20049;-33
2023/03/30 14:56:10;;;;;;;7.32;1.17;;;;;;;16.92;52.56;96477.28;10370086;28;20038;-33
2023/03/30 15:01:15;;;;;;;3.72;1.52;;;;;;;16.92;52.87;96493.28;10369621;28;20030;-33
2023/03/30 15:06:21;;;;;;;7.13;1.35;;;;;;;16.91;52.43;96480.66;10381320;28;20073;-33
2023/03/30 15:11:25;;;;;;;5.07;1.23;;;;;;;16.93;52.41;96467.19;10358258;28;20048;-32
2023/03/30 15:16:32;;;;;;;4.63;1.00;;;;;;;16.94;52.36;96465.47;10359437;28;20033;-33
2023/03/30 15:21:35;;;;;;;2.97;0.80;;;;;;;16.93;52.11;96468.84;10381198;28;20108;-33
2023/03/30 15:26:40;;;;;;;6.22;1.00;;;;;;;16.94;52.15;96483.19;10368759;28;20306;-32
2023/03/30 15:31:44;;;;;;;5.03;1.00;;;;;;;16.93;52.00;96463.78;10387489;28;20038;-33
2023/03/30 15:36:52;;;;;;;3.78;1.10;;;;;;;16.91;52.76;96442.72;10374858;28;20034;-32
2023/03/30 15:41:55;;;;;;;7.80;1.63;;;;;;;17.03;60.11;96440.19;10381828;28;20038;-33
2023/03/30 15:46:57;;;;;;;15.50;1.63;;;;;;;17.08;60.93;96439.34;10364914;28;20037;-32
2023/03/30 15:52:00;;;;;;;7.63;1.95;;;;;;;17.05;55.09;96434.31;10377296;28;20040;-33
2023/03/30 15:57:12;;;;;;;4.47;0.95;;;;;;;17.00;52.93;96414.91;10376833;28;20560;-32
2023/03/30 16:02:20;;;;;;;2.78;1.17;;;;;;;17.01;52.74;96430.09;10375813;28;20029;-33
2023/03/30 16:07:23;;;;;;;3.97;0.80;;;;;;;16.98;52.23;96416.59;10370728;28;20037;-33
2023/03/30 16:12:26;;;;;;;3.22;0.80;;;;;;;16.99;52.20;96433.47;10368654;28;20025;-33
2023/03/30 16:17:26;;;;;;;5.43;0.95;;;;;;;16.97;51.85;96414.91;10373159;28;20425;-33
2023/03/30 16:22:27;;;;;;;2.33;0.90;;;;;;;16.97;51.94;96420.81;10359432;28;20034;-33
2023/03/30 16:27:30;;;;;;;6.27;0.97;;;;;;;16.96;51.63;96420.81;10372627;28;20038;-33
2023/03/30 16:32:30;;;;;;;2.35;0.90;;;;;;;16.97;51.85;96430.06;10370605;28;20492;-33
2023/03/30 16:37:30;;;;;;;4.60;0.93;;;;;;;16.94;51.65;96405.66;10368145;28;20038;-33
2023/03/30 16:42:31;;;;;;;3.10;0.87;;;;;;;16.95;51.63;96414.06;10363221;28;20120;-32
2023/03/30 16:47:36;;;;;;;4.00;0.87;;;;;;;16.95;51.89;96403.94;10389595;28;20099;-34
2023/03/30 16:52:36;;;;;;;5.35;1.25;;;;;;;17.03;56.07;96399.75;10382083;28;20113;-33
2023/03/30 16:57:37;;;;;;;5.93;2.40;;;;;;;17.07;57.37;96391.31;10370426;28;20501;-33
2023/03/30 17:02:39;;;;;;;6.03;1.25;;;;;;;17.12;55.76;96385.41;10359704;28;20509;-33
2023/03/30 17:07:40;;;;;;;4.75;1.20;;;;;;;17.09;52.49;96392.16;10371077;28;20517;-33
2023/03/30 17:12:41;;;;;;;3.42;0.73;;;;;;;17.04;51.87;96393.84;10370561;28;20034;-33
2023/03/30 17:17:41;;;;;;;3.47;0.85;;;;;;;17.02;51.53;96390.47;10364350;28;20407;-33
2023/03/30 17:22:41;;;;;;;4.20;0.80;;;;;;;17.00;51.30;96394.69;10370883;28;20038;-33
2023/03/30 17:27:42;;;;;;;3.00;1.00;;;;;;;17.00;51.77;96399.75;10372832;28;20464;-34
2023/03/30 17:32:43;;;;;;;7.47;1.25;;;;;;;16.93;54.39;96398.06;10374124;28;20050;-33
2023/03/30 17:37:46;;;;;;;2.95;0.90;;;;;;;17.01;51.87;96409.88;10372818;28;20509;-32
2023/03/30 17:42:47;;;;;;;2.60;0.80;;;;;;;17.05;51.75;96411.53;10362315;28;20038;-33
2023/03/30 17:47:47;;;;;;;5.15;0.88;;;;;;;17.08;51.44;96419.13;10385627;28;20070;-32
2023/03/30 17:52:48;;;;;;;7.60;1.30;;;;;;;17.07;52.16;96407.31;10369605;28;20112;-33
2023/03/30 17:57:49;;;;;;;6.63;0.88;;;;;;;17.08;52.40;96413.25;10383779;28;20089;-32
2023/03/30 18:02:50;;;;;;;3.33;1.35;;;;;;;17.08;52.39;96400.59;10372185;28;20194;-32
2023/03/30 18:07:52;;;;;;;6.70;1.42;;;;;;;17.15;59.53;96404.81;10387529;28;20482;-34
2023/03/30 18:12:53;;;;;;;8.05;1.73;;;;;;;17.17;60.00;96396.34;10389675;28;20560;-33
2023/03/30 18:17:55;;;;;;;3.13;0.77;;;;;;;17.17;53.32;96409.00;10384428;28;20029;-34
2023/03/30 18:22:58;;;;;;;4.15;1.35;;;;;;;17.15;52.57;96420.00;10391435;28;20716;-33
2023/03/30 18:27:59;;;;;;;5.63;0.80;;;;;;;17.14;51.95;96413.25;10388659;28;20034;-33
2023/03/30 18:33:00;;;;;;;3.53;0.95;;;;;;;17.15;52.10;96425.06;10385769;28;20041;-32
2023/03/30 18:38:01;;;;;;;4.53;1.00;;;;;;;17.13;52.56;96411.53;10376836;28;20490;-32
2023/03/30 18:43:02;;;;;;;4.63;0.93;;;;;;;17.15;52.28;96415.75;10380324;28;20040;-33
2023/03/30 18:48:05;;;;;;;2.63;1.00;;;;;;;17.15;52.15;96413.22;10361790;28;20026;-33
2023/03/30 18:53:08;;;;;;;4.07;1.50;;;;;;;17.15;52.21;96425.88;10367553;28;20044;-33
2023/03/30 18:58:13;;;;;;;6.28;1.02;;;;;;;17.13;52.21;96422.50;10360206;28;20630;-33
2023/03/30 19:03:15;;;;;;;1.60;1.13;;;;;;;17.13;52.09;96425.03;10356152;28;20041;-33
2023/03/30 19:08:19;;;;;;;5.07;1.75;;;;;;;17.17;51.89;96433.47;10359196;28;20050;-33
2023/03/30 19:13:21;;;;;;;3.17;0.90;;;;;;;17.18;53.05;96446.13;10362200;28;20037;-33
2023/03/30 19:18:21;;;;;;;5.82;1.30;;;;;;;17.25;59.02;96446.97;10360144;28;20033;-33
2023/03/30 19:23:22;;;;;;;9.63;2.55;;;;;;;17.24;59.63;96451.19;10362701;28;20041;-33
2023/03/30 19:28:22;;;;;;;2.43;1.10;;;;;;;17.24;55.72;96440.22;10359483;28;20060;-32
2023/03/30 19:33:22;;;;;;;4.87;1.43;;;;;;;17.24;53.61;96440.22;10354339;28;20061;-33
2023/03/30 19:38:23;;;;;;;4.37;1.57;;;;;;;17.24;53.17;96427.59;10357344;28;20034;-33
2023/03/30 19:43:23;;;;;;;1.83;1.20;;;;;;;17.22;52.56;96422.50;10358876;28;20042;-33
2023/03/30 19:48:23;;;;;;;2.77;0.67;;;;;;;17.21;52.20;96414.91;10351801;28;20037;-33
2023/03/30 19:53:24;;;;;;;2.73;1.13;;;;;;;17.21;52.07;96404.78;10354043;28;20149;-33
2023/03/30 19:58:24;;;;;;;6.70;1.03;;;;;;;17.19;51.97;96421.66;10363094;28;20292;-33
2023/03/30 20:03:25;;;;;;;2.05;0.93;;;;;;;17.20;53.13;96409.03;10363831;28;20037;-34
2023/03/30 20:08:25;;;;;;;3.40;0.85;;;;;;;17.22;52.51;96406.47;10358552;28;20099;-33
2023/03/30 20:13:26;;;;;;;2.28;0.68;;;;;;;17.22;51.80;96407.34;10377746;28;20022;-33
2023/03/30 20:18:29;;;;;;;2.42;0.65;;;;;;;17.20;51.80;96400.59;10379606;28;20052;-33
2023/03/30 20:23:30;;;;;;;1.92;1.08;;;;;;;17.21;51.80;96404.78;10437690;23;20229;-25
2023/03/30 20:28:31;;;;;;;2.07;0.83;;;;;;;17.25;52.40;96401.44;10349185;28;20042;-26
2023/03/30 20:33:32;;;;;;;4.47;2.17;;;;;;;17.30;59.19;96392.13;10342660;28;20233;-25
2023/03/30 20:38:32;;;;;;;2.38;1.10;;;;;;;17.25;57.31;96382.03;10324594;28;20153;-26
2023/03/30 20:43:33;;;;;;;2.38;0.65;;;;;;;17.22;52.78;96381.19;10325329;28;20085;-26
2023/03/30 20:48:38;;;;;;;4.88;1.05;;;;;;;17.18;52.29;96382.91;10320845;28;20034;-25
2023/03/30 20:53:39;;;;;;;2.13;0.75;;;;;;;17.16;52.34;96376.16;10330007;28;20524;-25
2023/03/30 20:58:40;;;;;;;1.52;0.80;;;;;;;17.16;51.92;96353.38;10352743;23;20045;-30
2023/03/30 21:03:42;;;;;;;1.85;0.95;;;;;;;17.15;51.94;96344.09;10366530;28;20041;-29
2023/03/30 21:08:43;;;;;;;7.53;1.00;;;;;;;17.12;51.53;96349.16;10360910;28;20042;-29
2023/03/30 21:13:43;;;;;;;1.10;0.70;;;;;;;17.10;52.14;96340.72;10352980;28;20042;-29
2023/03/30 21:18:44;;;;;;;2.55;0.70;;;;;;;17.10;51.66;96343.25;10359457;28;20048;-30
2023/03/30 21:23:45;;;;;;;1.20;0.70;;;;;;;17.10;52.09;96328.94;10374493;28;20038;-30
2023/03/30 21:28:45;;;;;;;1.55;0.70;;;;;;;17.07;51.83;96315.44;10357951;28;20061;-29
2023/03/30 21:33:46;;;;;;;2.43;0.80;;;;;;;17.07;51.67;96311.22;10353312;28;20038;-30
2023/03/30 21:38:46;;;;;;;2.35;0.98;;;;;;;17.10;55.46;96297.72;10333313;28;20034;-30
2023/03/30 21:43:47;;;;;;;5.63;1.10;;;;;;;17.17;60.53;96307.81;10339457;28;20034;-30
2023/03/30 21:48:48;;;;;;;1.52;0.98;;;;;;;17.16;60.73;96302.78;10360893;28;20169;-30
2023/03/30 21:53:51;;;;;;;3.42;0.80;;;;;;;17.14;55.55;96302.78;10351266;28;20027;-30
2023/03/30 21:58:51;;;;;;;2.00;0.63;;;;;;;17.08;52.99;96282.56;10353253;28;20041;-29
2023/03/30 22:03:53;;;;;;;3.30;0.53;;;;;;;17.07;52.43;96269.94;10360219;28;20049;-29
2023/03/30 22:08:53;;;;;;;2.38;0.82;;;;;;;17.07;52.14;96265.69;10338712;28;20296;-30
2023/03/30 22:13:54;;;;;;;2.07;0.73;;;;;;;17.07;52.25;96254.75;10340365;28;20030;-30
2023/03/30 22:18:54;;;;;;;2.03;0.80;;;;;;;17.07;52.31;96249.69;10351864;28;20633;-29
2023/03/30 22:23:54;;;;;;;0.93;0.60;;;;;;;17.06;52.12;96248.84;10356419;28;20041;-29
2023/03/30 22:28:55;;;;;;;0.60;0.47;;;;;;;17.06;52.35;96246.31;10368072;28;20037;-30
2023/03/30 22:33:56;;;;;;;1.17;0.50;;;;;;;17.05;51.97;96246.31;10364328;28;20084;-29
2023/03/30 22:38:57;;;;;;;3.03;0.60;;;;;;;17.07;52.86;96239.59;10338779;28;20084;-30
2023/03/30 22:43:57;;;;;;;0.70;0.68;;;;;;;17.05;52.62;96239.56;10354013;28;20025;-30
2023/03/30 22:48:58;;;;;;;1.10;0.55;;;;;;;17.04;52.61;96229.44;10360930;28;20034;-30
2023/03/30 22:53:59;;;;;;;2.25;0.70;;;;;;;17.15;60.57;96217.66;10341120;28;20034;-30
2023/03/30 22:59:00;;;;;;;1.77;0.60;;;;;;;17.17;61.03;96203.31;10345396;28;20073;-30
2023/03/30 23:04:00;;;;;;;1.92;0.90;;;;;;;17.16;60.02;96199.91;10347339;28;20307;-30
2023/03/30 23:09:03;;;;;;;2.43;0.90;;;;;;;17.11;53.84;96185.59;10370424;28;20037;-30
2023/03/30 23:14:06;;;;;;;1.15;0.70;;;;;;;17.10;53.09;96187.31;10370327;28;20280;-29
2023/03/30 23:19:06;;;;;;;1.15;0.70;;;;;;;17.10;53.78;96183.91;10353625;28;20122;-30
2023/03/30 23:24:10;;;;;;;1.33;0.70;;;;;;;17.10;53.14;96166.22;10336014;28;20518;-30
2023/03/30 23:29:10;;;;;;;1.23;0.70;;;;;;;17.09;52.54;96156.97;10372415;28;20112;-30
2023/03/30 23:34:12;;;;;;;1.33;0.80;;;;;;;17.10;53.25;96148.53;10381043;28;20093;-30
2023/03/30 23:39:12;;;;;;;1.55;0.85;;;;;;;17.07;52.62;96141.78;10348873;28;20398;-30
2023/03/30 23:44:12;;;;;;;1.00;0.50;;;;;;;17.08;52.85;96138.41;10364232;28;20483;-29